Airfield :
LOGIN :

Register | Disclaimer

   EN    FR    IT 

 










Legend :    VFR   Marginal VFR   IFR   Intensive IFR   Very Intensive IFR
Visi :
Ceiling :
>= 8 km
>= 3000ft
5 to 8 km
1000 to 3000 ft
1500m to 5 km
500 to 1000 ft
800 to 1500m
200 to 500 ft
< 800m
< 200 ft
Symbols :   Thunderstorms  Fog  Heavy snow  Heavy precipitations  Wind > 20 kt
SIGMETs :     Misc.  Thunderstorms  Icing  Turbulence  Mountain Waves  Volcanic Ashes







- Airport Elevation : 3368 ft


LSGC - Les Eplatures

CURRENT METAR :
  • 222320Z AUTO 00000KT CAVOK 17/14 Q1022

EXPIRED METARs :
  • 222250Z AUTO 00000KT CAVOK 19/15 Q1022
  • 222220Z AUTO 00000KT 9999 //////TCU 19/15 Q1022
  • 222150Z AUTO 00000KT CAVOK 20/16 Q1022
  • 222120Z AUTO 00000KT CAVOK 20/16 Q1022
  • 222050Z AUTO 00000KT CAVOK 20/16 Q1022

TAF TAF LSGC
Valid from the 22 at 15:00 until the 23 at 00:00 UTC


221425Z 2215/2224 25008KT 9999 FEW060TCU SCT065
PROB40
TEMPO 2215/2218 TS FEW060CB
BECMG 2218/2220 VRB03KT CAVOK
No reported NOTAMs for that airfield.



MET'MAP, your aeronautical weather chart ! - Copyright ORBIFLY December 2007 - Disclaimer

ORBIFLY MET'MAP TEAM :

Programming & Development : Alexandra Zaïnal
Concept & Development : Baudouin d'Aumeries
Co-Development & Prog : Marc-Olivier Méhu
Technical & hardware support : Manuel Goepfert

Contact : metmap@orbifly.com




SOURCES & CREDITS :

   NOAA